createdAt,value
2022-09-16T00:02:14.075Z,1.77
2022-09-16T00:04:44.707Z,1.13
2022-09-16T00:07:15.041Z,1.20
2022-09-16T00:09:45.332Z,1.42
2022-09-16T00:12:15.702Z,1.50
2022-09-16T00:14:47.795Z,1.40
2022-09-16T00:17:18.156Z,1.40
2022-09-16T00:19:48.998Z,1.40
2022-09-16T00:22:19.809Z,1.05
2022-09-16T00:24:52.254Z,1.42
2022-09-16T00:27:22.753Z,1.55
2022-09-16T00:29:55.014Z,2.25
2022-09-16T00:32:25.640Z,1.42
2022-09-16T00:34:55.724Z,1.42
2022-09-16T00:37:27.746Z,1.40
2022-09-16T00:39:57.963Z,2.95
2022-09-16T00:42:27.729Z,1.55
2022-09-16T00:45:03.775Z,1.60
2022-09-16T00:47:40.295Z,1.95
2022-09-16T00:50:16.228Z,2.30
2022-09-16T00:52:47.167Z,1.63
2022-09-16T00:55:28.371Z,1.85
2022-09-16T00:58:08.106Z,1.63
2022-09-16T01:00:40.807Z,2.97
2022-09-16T01:03:11.064Z,1.70
2022-09-16T01:05:41.772Z,1.63
2022-09-16T01:08:12.660Z,1.60
2022-09-16T01:10:44.892Z,1.70
2022-09-16T01:13:18.481Z,1.83
2022-09-16T01:16:04.723Z,2.20
2022-09-16T01:18:46.081Z,1.90
2022-09-16T01:21:34.504Z,2.00
2022-09-16T01:24:44.559Z,1.80
2022-09-16T01:27:49.722Z,1.73
2022-09-16T01:31:01.401Z,1.80
2022-09-16T01:33:44.691Z,2.60
2022-09-16T01:36:35.226Z,2.83
2022-09-16T01:39:21.809Z,1.90
2022-09-16T01:42:14.764Z,1.58
2022-09-16T01:44:56.192Z,1.85
2022-09-16T01:47:39.030Z,2.03
2022-09-16T01:50:20.563Z,1.92
2022-09-16T01:53:10.061Z,2.00
2022-09-16T01:55:48.379Z,1.90
2022-09-16T01:58:25.377Z,1.88
2022-09-16T02:01:03.289Z,1.73
2022-09-16T02:03:41.232Z,1.75
2022-09-16T02:06:17.936Z,2.05
2022-09-16T02:08:57.467Z,2.17
2022-09-16T02:11:28.535Z,2.10
2022-09-16T02:14:07.790Z,2.17
2022-09-16T02:16:44.502Z,1.98
2022-09-16T02:19:25.385Z,1.70
2022-09-16T02:22:00.282Z,1.80
2022-09-16T02:24:34.386Z,1.80
2022-09-16T02:27:09.448Z,1.88
2022-09-16T02:29:49.306Z,1.80
2022-09-16T02:32:22.698Z,3.08
2022-09-16T02:34:56.770Z,1.77
2022-09-16T02:37:33.417Z,2.10
2022-09-16T02:40:12.403Z,1.73
2022-09-16T02:42:42.647Z,1.75
2022-09-16T02:45:14.680Z,1.95
2022-09-16T02:47:56.853Z,2.00
2022-09-16T02:50:37.238Z,1.80
2022-09-16T02:53:20.128Z,2.13
2022-09-16T02:55:58.239Z,2.75
2022-09-16T02:58:28.425Z,2.50
2022-09-16T03:01:00.099Z,2.33
2022-09-16T03:03:30.967Z,2.03
2022-09-16T03:06:18.754Z,2.40
2022-09-16T03:08:51.596Z,1.95
2022-09-16T03:12:06.804Z,1.70
2022-09-16T03:15:14.718Z,1.80
2022-09-16T03:18:18.144Z,1.80
2022-09-16T03:21:02.127Z,1.92
2022-09-16T03:23:51.365Z,1.95
2022-09-16T03:26:36.933Z,2.65
2022-09-16T03:29:22.316Z,2.45
2022-09-16T03:32:05.208Z,1.92
2022-09-16T03:34:42.972Z,2.17
2022-09-16T03:37:17.381Z,1.90
2022-09-16T03:39:55.562Z,2.20
2022-09-16T03:42:26.658Z,2.22
2022-09-16T03:44:57.761Z,2.30
2022-09-16T03:47:27.780Z,2.40
2022-09-16T03:49:58.439Z,3.67
2022-09-16T03:52:28.905Z,2.58
2022-09-16T03:55:00.932Z,2.35
2022-09-16T03:57:32.508Z,2.40
2022-09-16T04:00:02.806Z,2.67
2022-09-16T04:02:36.775Z,2.25
2022-09-16T04:05:08.675Z,2.10
2022-09-16T04:07:39.393Z,2.38
2022-09-16T04:10:13.130Z,2.08
2022-09-16T04:12:43.075Z,2.50
2022-09-16T04:15:15.308Z,2.30
2022-09-16T04:17:45.832Z,2.08
2022-09-16T04:20:16.347Z,2.30
2022-09-16T04:22:46.994Z,2.22
2022-09-16T04:25:19.629Z,2.10
2022-09-16T04:27:50.126Z,1.90
2022-09-16T04:30:21.241Z,1.98
2022-09-16T04:32:56.516Z,2.03
2022-09-16T04:35:27.596Z,1.83
2022-09-16T04:37:58.007Z,2.08
2022-09-16T04:40:31.027Z,2.15
2022-09-16T04:43:02.420Z,2.10
2022-09-16T04:45:32.879Z,1.98
2022-09-16T04:48:03.750Z,2.05
2022-09-16T04:50:33.636Z,2.03
2022-09-16T04:53:04.333Z,2.00
2022-09-16T04:55:37.486Z,2.03
2022-09-16T04:58:07.352Z,1.90
2022-09-16T05:00:37.494Z,2.00
2022-09-16T05:03:08.008Z,1.77
2022-09-16T05:05:38.568Z,2.33
2022-09-16T05:08:08.666Z,1.92
2022-09-16T05:10:40.654Z,2.30
2022-09-16T05:13:11.148Z,1.90
2022-09-16T05:15:41.514Z,1.90
2022-09-16T05:18:11.976Z,1.75
2022-09-16T05:20:42.233Z,2.25
2022-09-16T05:23:12.098Z,1.80
2022-09-16T05:25:44.614Z,1.88
2022-09-16T05:28:14.706Z,2.20
2022-09-16T05:30:45.596Z,2.03
2022-09-16T05:33:16.154Z,2.13
2022-09-16T05:35:46.537Z,1.63
2022-09-16T05:38:18.399Z,1.60
2022-09-16T05:40:50.166Z,1.80
2022-09-16T05:43:20.704Z,1.63
2022-09-16T05:45:54.855Z,1.50
2022-09-16T05:48:26.156Z,1.85
2022-09-16T05:50:57.788Z,1.40
2022-09-16T05:53:29.421Z,1.95
2022-09-16T05:56:03.851Z,2.92
2022-09-16T05:58:36.688Z,1.50
2022-09-16T06:01:09.707Z,1.58
2022-09-16T06:03:43.622Z,1.30
2022-09-16T06:06:18.971Z,1.67
2022-09-16T06:08:49.373Z,1.70
2022-09-16T06:11:22.196Z,1.50
2022-09-16T06:13:57.538Z,1.70
2022-09-16T06:16:29.376Z,1.20
2022-09-16T06:19:00.112Z,1.20
2022-09-16T06:21:31.191Z,1.33
2022-09-16T06:24:01.987Z,1.25
2022-09-16T06:26:36.488Z,1.48
2022-09-16T06:29:06.691Z,1.13
2022-09-16T06:31:39.473Z,1.35
2022-09-16T06:34:10.737Z,1.27
2022-09-16T06:36:45.170Z,1.08
2022-09-16T06:39:18.254Z,1.30
2022-09-16T06:41:50.926Z,1.40
2022-09-16T06:44:24.337Z,1.08
2022-09-16T06:46:54.412Z,1.05
2022-09-16T06:49:24.895Z,1.10
2022-09-16T06:51:55.487Z,1.20
2022-09-16T06:54:25.883Z,1.38
2022-09-16T06:56:58.267Z,1.30
2022-09-16T06:59:28.828Z,1.30
2022-09-16T07:01:59.290Z,1.38
2022-09-16T07:04:30.054Z,1.35
2022-09-16T07:07:09.992Z,1.77
2022-09-16T07:09:41.030Z,1.10
2022-09-16T07:12:16.316Z,1.48
2022-09-16T07:14:49.636Z,1.35
2022-09-16T07:17:19.969Z,1.50
2022-09-16T07:19:50.385Z,1.13
2022-09-16T07:22:20.430Z,1.38
2022-09-16T07:24:51.087Z,1.52
2022-09-16T07:27:23.205Z,1.50
2022-09-16T07:29:55.007Z,1.45
2022-09-16T07:32:26.188Z,1.15
2022-09-16T07:34:57.128Z,1.50
2022-09-16T07:37:30.386Z,1.38
2022-09-16T07:40:01.550Z,1.55
2022-09-16T07:42:34.821Z,1.88
2022-09-16T07:45:05.010Z,1.25
2022-09-16T07:47:35.334Z,1.40
2022-09-16T07:50:06.326Z,1.63
2022-09-16T07:52:36.934Z,1.60
2022-09-16T07:55:08.235Z,1.20
2022-09-16T07:57:41.247Z,1.15
2022-09-16T08:00:13.588Z,2.47
2022-09-16T08:02:43.757Z,1.35
2022-09-16T08:05:15.062Z,1.50
2022-09-16T08:07:45.699Z,1.27
2022-09-16T08:10:16.737Z,1.30
2022-09-16T08:12:52.346Z,1.10
2022-09-16T08:15:23.595Z,1.10
2022-09-16T08:17:53.699Z,1.05
2022-09-16T08:20:24.836Z,1.40
2022-09-16T08:22:57.938Z,1.00
2022-09-16T08:25:28.837Z,1.20
2022-09-16T08:28:01.315Z,1.00
2022-09-16T08:30:31.915Z,1.77
2022-09-16T08:33:03.413Z,1.17
2022-09-16T08:35:33.998Z,1.20
2022-09-16T08:38:05.177Z,1.30
2022-09-16T08:40:39.601Z,1.05
2022-09-16T08:43:20.541Z,1.02
2022-09-16T08:45:59.435Z,1.30
2022-09-16T08:48:41.946Z,0.90
2022-09-16T08:51:18.508Z,0.95
2022-09-16T08:53:57.335Z,1.15
2022-09-16T08:56:34.800Z,1.20
2022-09-16T08:59:17.304Z,1.00
2022-09-16T09:01:55.758Z,1.30
2022-09-16T09:04:26.527Z,1.10
2022-09-16T09:07:12.410Z,1.20
2022-09-16T09:10:02.041Z,1.30
2022-09-16T09:12:43.246Z,0.90
2022-09-16T09:15:43.051Z,0.98
2022-09-16T09:18:35.773Z,0.95
2022-09-16T09:21:27.157Z,1.13
2022-09-16T09:24:22.722Z,1.40
2022-09-16T09:26:56.693Z,0.93
2022-09-16T09:30:03.047Z,1.40
2022-09-16T09:33:17.585Z,0.85
2022-09-16T09:36:31.688Z,0.90
2022-09-16T09:39:40.126Z,1.10
2022-09-16T09:42:21.706Z,0.85
2022-09-16T09:45:02.288Z,1.05
2022-09-16T09:47:44.817Z,0.82
2022-09-16T09:50:24.626Z,0.90
2022-09-16T09:53:11.740Z,0.80
2022-09-16T09:55:44.199Z,0.77
2022-09-16T09:58:29.721Z,1.05
2022-09-16T10:00:59.960Z,1.00
2022-09-16T10:03:33.547Z,0.88
2022-09-16T10:06:04.296Z,0.90
2022-09-16T10:08:46.698Z,0.80
2022-09-16T10:11:23.099Z,0.70
2022-09-16T10:13:55.950Z,0.80
2022-09-16T10:16:31.738Z,1.25
2022-09-16T10:19:12.040Z,1.15
2022-09-16T10:21:49.981Z,0.73
2022-09-16T10:24:38.998Z,1.15
2022-09-16T10:27:33.155Z,0.80
2022-09-16T10:30:17.146Z,0.88
2022-09-16T10:32:59.144Z,0.90
2022-09-16T10:35:34.971Z,1.30
2022-09-16T10:38:16.326Z,1.08
2022-09-16T10:40:58.335Z,1.10
2022-09-16T10:43:33.337Z,0.93
2022-09-16T10:46:04.011Z,0.90
2022-09-16T10:48:38.100Z,0.75
2022-09-16T10:51:25.673Z,1.02
2022-09-16T10:53:59.489Z,0.90
2022-09-16T10:56:35.155Z,0.88
2022-09-16T10:59:08.070Z,0.70
2022-09-16T11:01:51.491Z,0.82
2022-09-16T11:04:59.196Z,0.80
2022-09-16T11:07:47.810Z,0.70
2022-09-16T11:10:30.316Z,0.70
2022-09-16T11:13:31.632Z,0.88
2022-09-16T11:16:26.212Z,0.88
2022-09-16T11:19:07.435Z,0.70
2022-09-16T11:21:57.925Z,0.93
2022-09-16T11:25:18.425Z,0.70
2022-09-16T11:27:59.214Z,0.75
2022-09-16T11:30:35.184Z,0.90
2022-09-16T11:33:23.274Z,0.68
2022-09-16T11:36:21.871Z,0.82
2022-09-16T11:39:10.870Z,1.00
2022-09-16T11:41:58.881Z,0.98
2022-09-16T11:44:47.844Z,0.70
2022-09-16T11:47:48.717Z,0.60
2022-09-16T11:50:45.189Z,0.80
2022-09-16T11:53:55.588Z,0.70
2022-09-16T11:56:40.445Z,0.75
2022-09-16T11:59:23.654Z,0.98
2022-09-16T12:02:03.799Z,1.42
2022-09-16T12:04:41.631Z,1.02
2022-09-16T12:07:20.343Z,0.70
2022-09-16T12:09:58.922Z,1.10
2022-09-16T12:12:39.915Z,0.70
2022-09-16T12:15:28.548Z,0.73
2022-09-16T12:18:15.549Z,0.68
2022-09-16T12:20:51.669Z,1.00
2022-09-16T12:23:27.589Z,0.90
2022-09-16T12:26:10.345Z,0.90
2022-09-16T12:28:50.150Z,0.57
2022-09-16T12:31:31.829Z,1.40
2022-09-16T12:34:08.563Z,0.80
2022-09-16T12:36:45.604Z,0.88
2022-09-16T12:39:16.504Z,0.90
2022-09-16T12:42:35.090Z,0.70
2022-09-16T12:45:50.588Z,0.68
2022-09-16T12:49:10.581Z,0.65
2022-09-16T12:52:19.124Z,1.05
2022-09-16T12:55:38.555Z,1.00
2022-09-16T12:58:44.863Z,0.70
2022-09-16T13:01:28.700Z,0.52
2022-09-16T13:04:10.613Z,0.60
2022-09-16T13:06:49.318Z,0.68
2022-09-16T13:09:27.602Z,0.60
2022-09-16T13:14:59.001Z,0.88
2022-09-16T13:17:34.331Z,0.70
2022-09-16T13:20:18.238Z,0.70
2022-09-16T13:22:59.334Z,1.35
2022-09-16T13:25:34.799Z,0.70
2022-09-16T13:28:25.568Z,0.60
2022-09-16T13:30:56.755Z,0.80
2022-09-16T13:33:31.669Z,0.65
2022-09-16T13:36:31.046Z,1.55
2022-09-16T13:39:03.872Z,0.70
2022-09-16T13:41:40.919Z,0.52
2022-09-16T13:44:43.894Z,0.70
2022-09-16T13:47:34.727Z,0.70
2022-09-16T13:50:15.153Z,0.60
2022-09-16T13:52:47.640Z,0.65
2022-09-16T13:55:27.523Z,0.50
2022-09-16T13:58:05.385Z,0.60
2022-09-16T14:00:49.417Z,0.47
2022-09-16T14:03:49.307Z,0.55
2022-09-16T14:06:56.534Z,0.60
2022-09-16T14:09:47.130Z,0.55
2022-09-16T14:12:30.103Z,0.80
2022-09-16T14:15:02.675Z,0.50
2022-09-16T14:17:42.754Z,0.70
2022-09-16T14:20:18.684Z,0.50
2022-09-16T14:22:49.242Z,0.70
2022-09-16T14:25:35.584Z,0.85
2022-09-16T14:28:25.378Z,0.98
2022-09-16T14:30:59.496Z,0.90
2022-09-16T14:33:37.567Z,0.90
2022-09-16T14:36:17.010Z,0.80
2022-09-16T14:38:53.905Z,0.60
2022-09-16T14:41:33.114Z,0.98
2022-09-16T14:44:24.260Z,0.80
2022-09-16T14:47:07.767Z,0.77
2022-09-16T14:49:41.101Z,0.73
2022-09-16T14:52:23.957Z,0.90
2022-09-16T14:54:54.789Z,0.85
2022-09-16T14:57:30.702Z,0.82
2022-09-16T15:00:10.426Z,1.02
2022-09-16T15:02:50.842Z,0.73
2022-09-16T15:05:28.120Z,1.38
2022-09-16T15:08:14.469Z,0.80
2022-09-16T15:10:52.561Z,0.75
2022-09-16T15:13:29.909Z,0.68
2022-09-16T15:16:06.262Z,0.75
2022-09-16T15:18:39.667Z,0.88
2022-09-16T15:21:15.325Z,0.70
2022-09-16T15:23:52.391Z,0.70
2022-09-16T15:26:26.697Z,0.73
2022-09-16T15:29:05.539Z,1.30
2022-09-16T15:31:41.256Z,0.88
2022-09-16T15:34:24.160Z,0.90
2022-09-16T15:36:57.171Z,0.70
2022-09-16T15:39:30.186Z,0.80
2022-09-16T15:42:16.178Z,0.80
2022-09-16T15:44:53.070Z,0.70
2022-09-16T15:47:29.339Z,0.80
2022-09-16T15:50:06.638Z,1.10
2022-09-16T15:52:53.609Z,0.63
2022-09-16T15:55:39.304Z,1.00
2022-09-16T15:58:16.173Z,0.55
2022-09-16T16:01:07.426Z,0.60
2022-09-16T16:03:51.529Z,0.75
2022-09-16T16:06:22.540Z,0.85
2022-09-16T16:08:58.825Z,0.80
2022-09-16T16:11:30.474Z,0.93
2022-09-16T16:14:02.178Z,0.77
2022-09-16T16:16:55.216Z,1.30
2022-09-16T16:19:29.508Z,0.90
2022-09-16T16:22:00.837Z,1.08
2022-09-16T16:24:31.394Z,1.00
2022-09-16T16:27:02.311Z,0.93
2022-09-16T16:29:32.338Z,0.95
2022-09-16T16:32:19.280Z,0.90
2022-09-16T16:34:52.506Z,0.90
2022-09-16T16:37:45.023Z,0.77
2022-09-16T16:40:14.480Z,1.13
2022-09-16T16:42:44.769Z,1.00
2022-09-16T16:45:15.289Z,1.05
2022-09-16T16:47:47.440Z,1.02
2022-09-16T16:50:18.079Z,0.80
2022-09-16T16:52:53.879Z,0.98
2022-09-16T16:55:24.417Z,0.93
2022-09-16T16:57:54.663Z,1.05
2022-09-16T17:00:25.216Z,0.80
2022-09-16T17:02:57.780Z,1.05
2022-09-16T17:05:28.658Z,1.10
2022-09-16T17:07:59.191Z,0.88
2022-09-16T17:10:29.378Z,0.98
2022-09-16T17:12:59.352Z,1.20
2022-09-16T17:15:29.369Z,0.93
2022-09-16T17:18:01.828Z,1.15
2022-09-16T17:20:32.279Z,0.80
2022-09-16T17:23:02.191Z,1.05
2022-09-16T17:25:33.949Z,1.08
2022-09-16T17:28:04.380Z,0.93
2022-09-16T17:30:35.482Z,1.30
2022-09-16T17:33:08.176Z,1.05
2022-09-16T17:35:38.123Z,1.60
2022-09-16T17:38:08.356Z,1.10
2022-09-16T17:40:39.154Z,1.17
2022-09-16T17:43:19.932Z,1.05
2022-09-16T17:45:52.913Z,1.10
2022-09-16T17:48:25.549Z,0.93
2022-09-16T17:50:56.471Z,0.95
2022-09-16T17:53:27.553Z,0.90
2022-09-16T17:56:11.046Z,1.00
2022-09-16T17:58:45.608Z,1.13
2022-09-16T18:01:21.125Z,0.73
2022-09-16T18:03:57.946Z,0.90
2022-09-16T18:06:33.091Z,1.10
2022-09-16T18:09:04.877Z,1.13
2022-09-16T18:11:35.373Z,0.98
2022-09-16T18:14:09.662Z,0.90
2022-09-16T18:16:39.825Z,0.90
2022-09-16T18:19:27.153Z,0.98
2022-09-16T18:21:58.187Z,0.90
2022-09-16T18:24:28.860Z,1.10
2022-09-16T18:27:02.362Z,0.73
2022-09-16T18:29:33.187Z,0.80
2022-09-16T18:32:03.299Z,0.60
2022-09-16T18:34:35.908Z,0.80
2022-09-16T18:37:06.390Z,0.80
2022-09-16T18:39:37.087Z,0.90
2022-09-16T18:42:07.909Z,1.00
2022-09-16T18:44:38.922Z,1.40
2022-09-16T18:47:08.732Z,1.00
2022-09-16T18:49:41.154Z,0.98
2022-09-16T18:52:11.494Z,0.90
2022-09-16T18:54:41.992Z,0.80
2022-09-16T18:57:11.668Z,1.00
2022-09-16T18:59:42.768Z,0.80
2022-09-16T19:02:15.092Z,0.90
2022-09-16T19:04:47.582Z,1.27
2022-09-16T19:07:19.762Z,0.98
2022-09-16T19:10:03.739Z,0.85
2022-09-16T19:12:38.473Z,1.00
2022-09-16T19:15:11.490Z,0.93
2022-09-16T19:17:41.424Z,0.90
2022-09-16T19:20:14.247Z,0.85
2022-09-16T19:22:44.189Z,1.05
2022-09-16T19:25:15.497Z,1.20
2022-09-16T19:27:46.129Z,0.80
2022-09-16T19:30:22.815Z,1.00
2022-09-16T19:32:53.906Z,0.90
2022-09-16T19:35:28.849Z,0.82
2022-09-16T19:37:59.476Z,0.93
2022-09-16T19:40:30.227Z,0.95
2022-09-16T19:43:00.687Z,0.73
2022-09-16T19:45:31.163Z,1.00
2022-09-16T19:48:01.597Z,1.00
2022-09-16T19:50:34.195Z,1.10
2022-09-16T19:53:04.791Z,0.90
2022-09-16T19:55:35.404Z,1.25
2022-09-16T19:58:05.946Z,1.10
2022-09-16T20:00:55.114Z,1.10
2022-09-16T20:03:26.574Z,0.95
2022-09-16T20:06:11.544Z,1.10
2022-09-16T20:08:43.556Z,1.00
2022-09-16T20:11:20.300Z,0.95
2022-09-16T20:13:52.152Z,1.10
2022-09-16T20:16:25.651Z,1.02
2022-09-16T20:18:56.771Z,1.10
2022-09-16T20:21:33.681Z,0.93
2022-09-16T20:24:05.981Z,1.05
2022-09-16T20:26:37.349Z,0.98
2022-09-16T20:29:07.871Z,0.98
2022-09-16T20:31:39.533Z,1.02
2022-09-16T20:34:16.591Z,1.30
2022-09-16T20:36:49.005Z,1.13
2022-09-16T20:39:19.536Z,1.15
2022-09-16T20:41:53.035Z,1.23
2022-09-16T20:44:23.510Z,1.52
2022-09-16T20:46:53.987Z,1.02
2022-09-16T20:49:25.553Z,1.30
2022-09-16T20:51:57.962Z,1.10
2022-09-16T20:54:28.511Z,1.10
2022-09-16T20:56:59.443Z,0.90
2022-09-16T20:59:30.878Z,0.90
2022-09-16T21:02:04.484Z,1.55
2022-09-16T21:04:34.880Z,1.25
2022-09-16T21:07:07.080Z,1.40
2022-09-16T21:09:37.047Z,1.23
2022-09-16T21:12:07.933Z,0.98
2022-09-16T21:14:41.299Z,1.20
2022-09-16T21:17:11.298Z,1.40
2022-09-16T21:19:41.269Z,1.10
2022-09-16T21:22:13.425Z,1.30
2022-09-16T21:24:43.874Z,1.27
2022-09-16T21:27:14.618Z,1.27
2022-09-16T21:29:45.126Z,1.25
2022-09-16T21:32:15.621Z,1.40
2022-09-16T21:34:46.025Z,1.25
2022-09-16T21:37:17.704Z,1.23
2022-09-16T21:39:47.633Z,1.48
2022-09-16T21:42:18.040Z,1.40
2022-09-16T21:44:49.037Z,1.50
2022-09-16T21:47:19.965Z,1.40
2022-09-16T21:49:50.539Z,1.50
2022-09-16T21:52:22.884Z,1.20
2022-09-16T21:54:53.441Z,1.10
2022-09-16T21:57:23.837Z,1.30
2022-09-16T21:59:54.157Z,1.00
2022-09-16T22:02:28.917Z,1.58
2022-09-16T22:04:59.875Z,1.30
2022-09-16T22:07:31.279Z,1.30
2022-09-16T22:10:01.718Z,1.10
2022-09-16T22:12:32.378Z,1.50
2022-09-16T22:15:02.740Z,1.40
2022-09-16T22:17:33.161Z,1.20
2022-09-16T22:20:04.034Z,1.00
2022-09-16T22:22:38.098Z,1.83
2022-09-16T22:25:09.546Z,1.50
2022-09-16T22:27:39.964Z,1.60
2022-09-16T22:30:12.536Z,1.25
2022-09-16T22:32:43.293Z,1.35
2022-09-16T22:35:13.316Z,1.38
2022-09-16T22:37:45.670Z,1.40
2022-09-16T22:40:16.142Z,1.40
2022-09-16T22:42:46.578Z,1.60
2022-09-16T22:45:17.110Z,1.25
2022-09-16T22:47:47.372Z,1.30
2022-09-16T22:50:17.212Z,1.55
2022-09-16T22:52:49.301Z,1.45
2022-09-16T22:55:19.788Z,1.60
2022-09-16T22:57:50.316Z,1.30
2022-09-16T23:00:20.976Z,1.40
2022-09-16T23:02:51.442Z,1.20
2022-09-16T23:05:21.153Z,1.17
2022-09-16T23:07:54.531Z,1.42
2022-09-16T23:10:24.828Z,1.05
2022-09-16T23:12:55.894Z,1.40
2022-09-16T23:15:26.903Z,1.40
2022-09-16T23:17:56.785Z,1.10
2022-09-16T23:20:27.040Z,1.40
2022-09-16T23:22:59.285Z,1.58
2022-09-16T23:25:40.320Z,1.55
2022-09-16T23:28:10.711Z,3.00
2022-09-16T23:30:41.298Z,1.50
2022-09-16T23:33:11.730Z,1.40
2022-09-16T23:35:47.556Z,2.47
2022-09-16T23:38:20.487Z,1.25
2022-09-16T23:40:50.896Z,1.40
2022-09-16T23:43:21.345Z,1.27
2022-09-16T23:45:51.435Z,1.38
2022-09-16T23:48:21.563Z,1.55
2022-09-16T23:50:51.862Z,1.70
2022-09-16T23:53:24.807Z,1.40
2022-09-16T23:55:55.079Z,1.25
2022-09-16T23:58:26.184Z,1.17
